Time;durP1;ratioP1;P1;durP2;ratioP2;P2;SDS_P1;SDS_P2;PMS_P1;PMS_P2;Temp;Humidity;BMP_temperature;BMP_pressure;BME280_temperature;BME280_humidity;BME280_pressure;Samples;Min_cycle;Max_cycle;Signal;HPM_P1;HPM_P2
2021/04/04 00:01:42;;;;;;;2.30;1.17;;;13.50;72.80;;;;;;5113780;28;20055;-43
2021/04/04 00:04:07;;;;;;;2.78;1.10;;;13.50;72.80;;;;;;5113251;28;20047;-43
2021/04/04 00:06:33;;;;;;;2.17;1.08;;;13.50;72.80;;;;;;5113913;28;20050;-41
2021/04/04 00:08:59;;;;;;;1.05;0.80;;;13.50;72.80;;;;;;5114217;28;20040;-43
2021/04/04 00:11:25;;;;;;;2.42;1.08;;;13.50;72.80;;;;;;5114140;28;20487;-43
2021/04/04 00:13:52;;;;;;;2.15;1.20;;;13.60;72.90;;;;;;5110362;28;20043;-44
2021/04/04 00:16:17;;;;;;;1.65;1.00;;;13.50;72.80;;;;;;5114131;28;20115;-44
2021/04/04 00:18:43;;;;;;;1.25;0.90;;;13.50;72.80;;;;;;5113347;28;20506;-43
2021/04/04 00:21:09;;;;;;;1.60;0.80;;;13.50;72.80;;;;;;5113947;28;20036;-44
2021/04/04 00:23:35;;;;;;;1.77;1.00;;;13.50;72.80;;;;;;5113682;28;20381;-43
2021/04/04 00:26:02;;;;;;;3.00;1.10;;;13.50;72.80;;;;;;5113965;28;20050;-43
2021/04/04 00:28:28;;;;;;;1.45;1.10;;;13.50;72.80;;;;;;5113644;28;20479;-43
2021/04/04 00:30:54;;;;;;;1.45;0.80;;;13.50;72.80;;;;;;5113636;28;20071;-43
2021/04/04 00:33:20;;;;;;;1.20;1.05;;;13.50;72.90;;;;;;5113137;28;20082;-43
2021/04/04 00:35:46;;;;;;;1.85;1.02;;;13.50;72.90;;;;;;5113740;28;20126;-44
2021/04/04 00:38:13;;;;;;;1.13;0.98;;;13.50;72.90;;;;;;5109313;28;20051;-42
2021/04/04 00:40:39;;;;;;;2.33;1.00;;;13.50;72.90;;;;;;5113073;28;20039;-43
2021/04/04 00:43:05;;;;;;;1.58;0.77;;;13.50;72.90;;;;;;5113676;27;20044;-43
2021/04/04 00:45:34;;;;;;;1.13;0.82;;;13.50;72.90;;;;;;5109794;28;20043;-43
2021/04/04 00:48:00;;;;;;;1.90;1.10;;;13.50;72.90;;;;;;5113058;28;20048;-43
2021/04/04 00:50:31;;;;;;;2.80;1.02;;;13.50;72.90;;;;;;5113349;28;20055;-44
2021/04/04 00:52:58;;;;;;;2.17;1.10;;;13.50;72.90;;;;;;5111456;28;20111;-48
2021/04/04 00:55:23;;;;;;;1.15;1.00;;;13.50;72.90;;;;;;5113170;28;20138;-46
2021/04/04 00:57:51;;;;;;;1.73;1.00;;;13.50;72.90;;;;;;5108990;28;20173;-45
2021/04/04 01:00:20;;;;;;;2.10;1.27;;;13.50;72.90;;;;;;5112789;28;20043;-42
2021/04/04 01:02:46;;;;;;;2.30;0.98;;;13.50;73.60;;;;;;5112782;28;20056;-49
2021/04/04 01:05:22;;;;;;;2.15;1.05;;;13.50;72.90;;;;;;5109960;28;20423;-45
2021/04/04 01:07:49;;;;;;;2.17;0.80;;;13.50;72.90;;;;;;5113144;28;20046;-44
2021/04/04 01:10:15;;;;;;;1.42;1.10;;;13.50;72.90;;;;;;5112994;28;20046;-48
2021/04/04 01:13:01;;;;;;;1.95;1.02;;;13.50;72.90;;;;;;5113171;28;20051;-46
2021/04/04 01:15:32;;;;;;;2.53;1.08;;;13.50;72.90;;;;;;5112136;28;20043;-48
2021/04/04 01:18:07;;;;;;;1.33;0.90;;;13.50;72.90;;;;;;5112446;28;20093;-44
2021/04/04 01:20:46;;;;;;;1.75;1.10;;;13.50;72.90;;;;;;5110224;28;20460;-47
2021/04/04 01:23:33;;;;;;;1.88;0.82;;;13.50;72.90;;;;;;5112635;28;20089;-46
2021/04/04 01:26:19;;;;;;;1.55;0.85;;;13.50;72.90;;;;;;5110561;28;20434;-46
2021/04/04 01:28:45;;;;;;;;;;;13.50;72.90;;;;;;5112085;28;20051;-47
2021/04/04 01:31:11;;;;;;;;;;;13.40;73.00;;;;;;5113152;28;20303;-42
2021/04/04 01:33:39;;;;;;;1.48;1.08;;;13.40;73.00;;;;;;5113035;28;19965;-44
2021/04/04 01:36:09;;;;;;;2.58;1.38;;;13.40;72.90;;;;;;5111990;28;20040;-47
2021/04/04 01:38:39;;;;;;;1.35;1.00;;;13.40;72.90;;;;;;5110576;28;20046;-45
2021/04/04 01:41:25;;;;;;;0.70;0.70;;;13.40;72.90;;;;;;5112696;28;20134;-44
2021/04/04 01:43:57;;;;;;;1.52;1.00;;;13.40;72.90;;;;;;5112608;28;20040;-43
2021/04/04 01:46:23;;;;;;;0.82;0.77;;;13.40;72.90;;;;;;5112020;28;20600;-46
2021/04/04 01:48:50;;;;;;;1.90;0.90;;;13.40;72.90;;;;;;5112347;28;20483;-45
2021/04/04 01:51:16;;;;;;;1.55;0.90;;;13.40;73.00;;;;;;5112091;28;20054;-44
2021/04/04 01:53:43;;;;;;;1.50;0.70;;;13.40;73.00;;;;;;5112625;28;20134;-48
2021/04/04 01:56:09;;;;;;;1.23;1.00;;;13.40;73.00;;;;;;5112429;28;20039;-44
2021/04/04 01:58:37;;;;;;;1.73;0.90;;;13.40;73.00;;;;;;5111924;28;20086;-44
2021/04/04 02:01:05;;;;;;;3.08;1.00;;;13.40;73.00;;;;;;5112241;28;20036;-44
2021/04/04 02:03:32;;;;;;;0.73;0.70;;;13.40;73.00;;;;;;5112699;28;20042;-43
2021/04/04 02:05:59;;;;;;;1.05;0.80;;;13.40;73.00;;;;;;5112030;28;20123;-44
2021/04/04 02:08:25;;;;;;;1.88;0.90;;;13.40;73.00;;;;;;5111821;28;20039;-47
2021/04/04 02:10:52;;;;;;;0.88;0.75;;;13.40;73.00;;;;;;5112419;28;20040;-47
2021/04/04 02:13:19;;;;;;;2.60;0.90;;;13.40;73.00;;;;;;5112208;28;20043;-44
2021/04/04 02:15:46;;;;;;;1.33;0.90;;;13.40;73.00;;;;;;5112172;28;20434;-43
2021/04/04 02:18:13;;;;;;;0.90;0.77;;;13.40;73.00;;;;;;5112364;28;20097;-44
2021/04/04 02:20:39;;;;;;;1.33;1.00;;;13.40;73.00;;;;;;5112218;28;20139;-47
2021/04/04 02:23:11;;;;;;;2.28;1.08;;;13.40;73.00;;;;;;5111592;28;20036;-44
2021/04/04 02:25:38;;;;;;;1.85;1.05;;;13.40;73.00;;;;;;5110369;28;20046;-46
2021/04/04 02:28:04;;;;;;;0.80;0.80;;;13.40;73.00;;;;;;5112333;28;20073;-44
2021/04/04 02:30:31;;;;;;;1.17;0.90;;;13.40;73.00;;;;;;5115751;28;20040;-44
2021/04/04 02:33:15;;;;;;;1.63;0.85;;;13.40;73.00;;;;;;5116299;28;20122;-43
2021/04/04 02:35:43;;;;;;;2.28;0.93;;;13.40;73.00;;;;;;5114592;28;20048;-44
2021/04/04 02:38:28;;;;;;;1.50;1.10;;;13.40;73.00;;;;;;5115292;28;20047;-44
2021/04/04 02:40:55;;;;;;;0.73;0.70;;;13.40;73.00;;;;;;5112944;28;20544;-45
2021/04/04 02:43:26;;;;;;;1.80;1.00;;;13.40;73.00;;;;;;5115668;28;20048;-44
2021/04/04 02:45:54;;;;;;;1.13;0.90;;;13.40;73.00;;;;;;5115541;28;20189;-42
2021/04/04 02:48:33;;;;;;;1.20;0.80;;;13.40;73.10;;;;;;5115716;28;20124;-44
2021/04/04 02:51:01;;;;;;;1.58;1.10;;;13.40;73.00;;;;;;5113204;28;20506;-47
2021/04/04 02:53:28;;;;;;;0.85;0.80;;;13.40;73.00;;;;;;5115387;28;20396;-47
2021/04/04 02:55:56;;;;;;;1.60;0.88;;;13.40;73.00;;;;;;5112674;28;20058;-43
2021/04/04 02:58:24;;;;;;;2.47;0.80;;;13.40;73.00;;;;;;5115815;28;20051;-44
2021/04/04 03:00:54;;;;;;;0.88;0.70;;;13.40;73.00;;;;;;5115729;28;20057;-43
2021/04/04 03:03:21;;;;;;;1.30;1.00;;;13.40;73.00;;;;;;5115426;28;20039;-44
2021/04/04 03:05:48;;;;;;;1.33;0.77;;;13.40;73.00;;;;;;5115529;28;20040;-45
2021/04/04 03:08:15;;;;;;;1.50;0.80;;;13.40;73.00;;;;;;5113966;28;20088;-44
2021/04/04 03:10:42;;;;;;;1.52;0.75;;;13.40;73.00;;;;;;5115396;28;20050;-43
2021/04/04 03:13:09;;;;;;;1.00;0.90;;;13.40;73.00;;;;;;5114911;28;20055;-44
2021/04/04 03:15:37;;;;;;;1.30;1.08;;;13.40;73.00;;;;;;5115938;28;20046;-43
2021/04/04 03:18:04;;;;;;;1.55;1.15;;;13.30;73.00;;;;;;5115241;28;20050;-43
2021/04/04 03:20:30;;;;;;;1.33;0.80;;;13.40;73.00;;;;;;5115394;28;20071;-44
2021/04/04 03:22:57;;;;;;;2.13;1.20;;;13.40;73.00;;;;;;5114615;28;20067;-41
2021/04/04 03:25:25;;;;;;;1.15;0.80;;;13.40;73.00;;;;;;5115137;28;20050;-43
2021/04/04 03:27:51;;;;;;;1.23;1.08;;;13.40;73.10;;;;;;5114811;28;20069;-44
2021/04/04 03:30:42;;;;;;;1.02;0.70;;;13.40;73.10;;;;;;5115446;28;20043;-42
2021/04/04 03:33:10;;;;;;;0.77;0.68;;;13.40;73.00;;;;;;5113725;28;20059;-44
2021/04/04 03:35:37;;;;;;;1.98;0.93;;;13.40;73.00;;;;;;5115265;28;20050;-43
2021/04/04 03:38:06;;;;;;;1.48;1.10;;;13.40;73.10;;;;;;5114960;28;20097;-42
2021/04/04 03:40:32;;;;;;;1.42;0.85;;;13.30;73.00;;;;;;5113796;28;20044;-43
2021/04/04 03:43:07;;;;;;;1.50;0.98;;;13.40;73.10;;;;;;5114520;28;20044;-42
2021/04/04 03:45:34;;;;;;;1.90;1.17;;;13.40;73.10;;;;;;5113294;28;20043;-40
2021/04/04 03:48:02;;;;;;;2.15;0.90;;;13.40;73.10;;;;;;5114310;28;20051;-43
2021/04/04 03:50:29;;;;;;;2.22;0.80;;;13.30;73.00;;;;;;5114112;28;20040;-45
2021/04/04 03:52:55;;;;;;;1.25;0.90;;;13.30;73.00;;;;;;5114908;28;20047;-43
2021/04/04 03:55:23;;;;;;;0.90;0.80;;;13.40;73.10;;;;;;5114327;28;20078;-45
2021/04/04 03:57:50;;;;;;;1.42;0.80;;;13.40;73.10;;;;;;5114295;28;20043;-44
2021/04/04 04:00:20;;;;;;;0.80;0.80;;;13.40;73.10;;;;;;5114524;28;20044;-49
2021/04/04 04:02:48;;;;;;;1.73;0.90;;;13.40;73.10;;;;;;5114350;28;20188;-42
2021/04/04 04:05:16;;;;;;;1.27;0.80;;;13.30;73.00;;;;;;5111661;28;20480;-44
2021/04/04 04:07:44;;;;;;;1.58;1.05;;;13.40;73.10;;;;;;5114328;28;20048;-44
2021/04/04 04:10:14;;;;;;;0.98;0.95;;;13.30;73.00;;;;;;5113632;28;20047;-44
2021/04/04 04:12:40;;;;;;;1.33;0.93;;;13.40;73.10;;;;;;5114110;28;20150;-43
2021/04/04 04:15:07;;;;;;;1.30;0.90;;;13.30;73.10;;;;;;5114018;28;20472;-42
2021/04/04 04:17:33;;;;;;;1.65;0.93;;;13.30;73.10;;;;;;5113095;28;20043;-44
2021/04/04 04:20:00;;;;;;;1.33;0.90;;;13.30;73.00;;;;;;5114277;28;20051;-43
2021/04/04 04:22:27;;;;;;;1.13;0.80;;;13.30;73.00;;;;;;5114214;28;20070;-44
2021/04/04 04:24:53;;;;;;;0.85;0.75;;;13.30;73.10;;;;;;5111575;28;20419;-43
2021/04/04 04:27:20;;;;;;;2.22;1.20;;;13.30;73.70;;;;;;5113731;28;20081;-46
2021/04/04 04:29:48;;;;;;;1.40;1.15;;;13.30;73.00;;;;;;5113859;28;20062;-42
2021/04/04 04:32:21;;;;;;;2.67;1.00;;;13.30;73.00;;;;;;5111210;28;20118;-43
2021/04/04 04:34:53;;;;;;;2.25;1.02;;;13.40;73.10;;;;;;5113837;28;20048;-44
2021/04/04 04:37:19;;;;;;;1.65;1.25;;;13.30;73.00;;;;;;5111943;28;20054;-42
2021/04/04 04:39:46;;;;;;;1.67;1.00;;;13.40;73.10;;;;;;5113818;28;20047;-45
2021/04/04 04:42:13;;;;;;;1.58;1.10;;;13.40;73.10;;;;;;5110328;28;20122;-41
2021/04/04 04:44:43;;;;;;;1.70;1.10;;;13.30;73.00;;;;;;5113710;28;20066;-43
2021/04/04 04:47:12;;;;;;;1.23;0.80;;;13.30;73.10;;;;;;5112718;28;20548;-42
2021/04/04 04:49:42;;;;;;;1.45;0.95;;;13.30;73.10;;;;;;5113749;28;20081;-42
2021/04/04 04:52:07;;;;;;;1.25;0.80;;;13.30;73.10;;;;;;5112750;28;20055;-48
2021/04/04 04:54:33;;;;;;;1.58;1.23;;;13.30;73.10;;;;;;5113531;28;20043;-48
2021/04/04 04:57:00;;;;;;;1.63;0.95;;;13.30;73.10;;;;;;5112870;28;20597;-47
2021/04/04 04:59:27;;;;;;;2.28;1.25;;;13.30;73.10;;;;;;5112850;28;20047;-48
2021/04/04 05:01:53;;;;;;;1.40;1.10;;;13.30;73.10;;;;;;5113011;28;20519;-47
2021/04/04 05:04:19;;;;;;;0.88;0.77;;;13.30;73.10;;;;;;5112007;28;20114;-43
2021/04/04 05:06:47;;;;;;;1.40;1.00;;;13.30;73.10;;;;;;5112528;28;20044;-47
2021/04/04 05:09:14;;;;;;;1.95;1.05;;;13.30;73.10;;;;;;5109599;28;20071;-44
2021/04/04 05:11:43;;;;;;;1.45;1.10;;;13.30;73.10;;;;;;5112384;28;20124;-45
2021/04/04 05:14:10;;;;;;;2.42;1.40;;;13.40;73.10;;;;;;5111951;28;20047;-44
2021/04/04 05:16:36;;;;;;;1.13;0.90;;;13.30;73.10;;;;;;5113232;28;20055;-46
2021/04/04 05:19:02;;;;;;;1.83;1.30;;;13.30;73.10;;;;;;5113270;28;20044;-45
2021/04/04 05:21:30;;;;;;;2.22;1.48;;;13.30;73.10;;;;;;5113578;28;20408;-48
2021/04/04 05:23:57;;;;;;;1.35;1.00;;;13.30;73.10;;;;;;5113689;28;20044;-47
2021/04/04 05:26:25;;;;;;;1.60;1.17;;;13.30;73.10;;;;;;5113533;28;20131;-47
2021/04/04 05:28:52;;;;;;;2.35;1.27;;;13.30;73.10;;;;;;5113322;28;20514;-47
2021/04/04 05:31:19;;;;;;;1.98;1.17;;;13.30;73.00;;;;;;5112945;28;20479;-45
2021/04/04 05:33:45;;;;;;;2.03;1.50;;;13.30;73.10;;;;;;5113484;28;20070;-47
2021/04/04 05:36:10;;;;;;;2.15;1.10;;;13.30;73.00;;;;;;5113318;28;20075;-45
2021/04/04 05:38:36;;;;;;;1.63;1.00;;;13.30;73.00;;;;;;5113354;28;20044;-44
2021/04/04 05:41:03;;;;;;;1.13;0.93;;;13.30;73.00;;;;;;5112925;28;20062;-44
2021/04/04 05:43:35;;;;;;;2.28;1.45;;;13.30;73.00;;;;;;5112899;28;20047;-46
2021/04/04 05:46:08;;;;;;;1.95;1.35;;;13.30;73.00;;;;;;5112401;28;20044;-41
2021/04/04 05:48:38;;;;;;;2.80;1.38;;;13.30;73.10;;;;;;5110005;28;20048;-47
2021/04/04 05:51:29;;;;;;;2.50;1.08;;;13.30;73.00;;;;;;5112534;28;20063;-44
2021/04/04 05:54:23;;;;;;;2.40;1.40;;;13.30;73.00;;;;;;5112673;28;20047;-44
2021/04/04 05:57:14;;;;;;;2.08;1.23;;;13.30;73.00;;;;;;5112409;28;20435;-45
2021/04/04 05:59:49;;;;;;;1.65;1.17;;;13.30;73.00;;;;;;5047827;28;20087;-44
2021/04/04 06:02:37;;;;;;;2.28;1.60;;;13.30;73.10;;;;;;5047655;28;20053;-43
2021/04/04 06:05:22;;;;;;;2.22;1.10;;;13.20;73.00;;;;;;5052841;28;20136;-43
2021/04/04 06:08:09;;;;;;;2.25;1.38;;;13.30;73.00;;;;;;5053586;28;20113;-43
2021/04/04 06:10:43;;;;;;;2.38;1.30;;;13.30;73.10;;;;;;5053386;28;20037;-44
2021/04/04 06:13:51;;;;;;;1.77;1.30;;;13.20;73.00;;;;;;5039013;28;20045;-44
2021/04/04 06:16:28;;;;;;;3.22;1.63;;;13.30;73.00;;;;;;5053076;28;20048;-41
2021/04/04 06:19:35;;;;;;;2.78;1.00;;;13.30;73.10;;;;;;5053705;28;20560;-42
2021/04/04 06:22:20;;;;;;;2.22;1.40;;;13.30;73.00;;;;;;5053539;28;20049;-43
2021/04/04 06:24:47;;;;;;;1.77;1.33;;;13.30;73.00;;;;;;5053697;28;20056;-42
2021/04/04 06:27:24;;;;;;;3.78;1.40;;;13.30;73.00;;;;;;5053585;28;20449;-44
2021/04/04 06:30:21;;;;;;;1.52;1.23;;;13.30;73.10;;;;;;5053259;28;20087;-39
2021/04/04 06:33:02;;;;;;;2.92;0.98;;;13.20;73.00;;;;;;5052354;28;20045;-41
2021/04/04 06:35:40;;;;;;;3.70;1.88;;;13.30;73.10;;;;;;5053469;28;20067;-47
2021/04/04 06:38:36;;;;;;;2.15;1.60;;;13.30;73.00;;;;;;5114774;28;20468;-44
2021/04/04 06:41:21;;;;;;;2.90;1.60;;;13.30;73.10;;;;;;5114415;28;20048;-45
2021/04/04 06:43:58;;;;;;;2.63;1.40;;;13.30;73.10;;;;;;5112752;28;20043;-47
2021/04/04 06:46:42;;;;;;;3.63;1.65;;;13.20;73.00;;;;;;5115757;28;20083;-48
2021/04/04 06:49:33;;;;;;;3.38;1.65;;;13.30;73.10;;;;;;5113301;28;20044;-47
2021/04/04 06:52:27;;;;;;;2.22;1.42;;;13.30;73.00;;;;;;5114878;28;20561;-42
2021/04/04 06:55:12;;;;;;;2.30;1.48;;;13.30;73.10;;;;;;5113666;28;20407;-43
2021/04/04 06:57:49;;;;;;;2.42;1.42;;;13.20;73.00;;;;;;5116060;28;20411;-45
2021/04/04 07:00:23;;;;;;;2.33;1.60;;;13.30;73.10;;;;;;5115602;28;20095;-46
2021/04/04 07:02:53;;;;;;;2.28;1.42;;;13.30;73.10;;;;;;5115336;28;20043;-48
2021/04/04 07:05:22;;;;;;;2.58;1.17;;;13.30;73.10;;;;;;5112950;28;20050;-46
2021/04/04 07:08:18;;;;;;;2.10;1.58;;;13.20;73.00;;;;;;5115478;28;20035;-40
2021/04/04 07:11:00;;;;;;;1.98;1.42;;;13.30;73.10;;;;;;5114088;28;20052;-47
2021/04/04 07:13:33;;;;;;;2.88;1.63;;;13.20;73.00;;;;;;5095488;28;20040;-43
2021/04/04 07:16:27;;;;;;;1.88;1.27;;;13.30;73.10;;;;;;5095218;28;20127;-44
2021/04/04 07:19:29;;;;;;;2.38;1.40;;;13.30;73.10;;;;;;5095438;28;20055;-43
2021/04/04 07:22:25;;;;;;;2.67;1.27;;;13.20;73.00;;;;;;5091327;28;20052;-47
2021/04/04 07:25:10;;;;;;;2.28;1.67;;;13.20;73.00;;;;;;5095449;28;20044;-42
2021/04/04 07:28:01;;;;;;;2.90;1.42;;;13.20;73.00;;;;;;5095368;28;20044;-44
2021/04/04 07:30:33;;;;;;;2.83;1.48;;;13.20;73.00;;;;;;5095374;28;20075;-44
2021/04/04 07:33:20;;;;;;;3.05;1.70;;;13.20;73.00;;;;;;5094677;28;20044;-42
2021/04/04 07:36:07;;;;;;;1.48;1.35;;;13.20;73.00;;;;;;5095135;28;20112;-43
2021/04/04 07:38:41;;;;;;;2.72;1.55;;;13.20;73.00;;;;;;5096209;28;20109;-43
2021/04/04 07:41:23;;;;;;;3.50;1.42;;;13.30;73.10;;;;;;5114836;28;20123;-41
2021/04/04 07:44:19;;;;;;;2.22;1.65;;;13.20;73.10;;;;;;5114337;28;20048;-42
2021/04/04 07:47:02;;;;;;;3.60;1.80;;;13.20;73.00;;;;;;5113587;28;20050;-44
2021/04/04 07:49:45;;;;;;;2.80;1.50;;;13.20;73.00;;;;;;5113514;28;20483;-41
2021/04/04 07:52:43;;;;;;;2.83;1.70;;;13.20;73.10;;;;;;5114353;28;20136;-43
2021/04/04 07:55:13;;;;;;;3.92;1.58;;;13.20;73.10;;;;;;5071115;28;20056;-43
2021/04/04 07:58:03;;;;;;;3.25;1.50;;;13.20;73.10;;;;;;5071807;28;20044;-41
2021/04/04 08:00:31;;;;;;;2.40;1.60;;;13.20;73.10;;;;;;5071173;28;20061;-41
2021/04/04 08:03:08;;;;;;;2.47;1.55;;;13.20;73.10;;;;;;5071445;28;20048;-43
2021/04/04 08:05:40;;;;;;;2.60;1.63;;;13.20;73.10;;;;;;5071529;28;20417;-42
2021/04/04 08:08:11;;;;;;;3.33;1.88;;;13.20;73.10;;;;;;5071708;28;20040;-43
2021/04/04 08:10:41;;;;;;;3.78;1.60;;;13.20;73.10;;;;;;5069096;28;20135;-40
2021/04/04 08:13:30;;;;;;;1.92;1.38;;;13.20;73.10;;;;;;5071478;28;20552;-42
2021/04/04 08:16:33;;;;;;;2.20;1.40;;;13.20;73.10;;;;;;5068883;28;20048;-42
2021/04/04 08:18:59;;;;;;;2.42;1.60;;;13.20;73.10;;;;;;5068898;28;20572;-44
2021/04/04 08:21:29;;;;;;;3.42;1.98;;;13.20;73.10;;;;;;5071109;28;20129;-42
2021/04/04 08:24:02;;;;;;;2.45;1.70;;;13.20;73.10;;;;;;5068644;28;20040;-43
2021/04/04 08:26:47;;;;;;;2.67;1.60;;;13.20;73.10;;;;;;5071254;28;20067;-43
2021/04/04 08:29:35;;;;;;;2.33;1.60;;;13.20;73.10;;;;;;5070662;28;20044;-44
2021/04/04 08:32:15;;;;;;;2.92;1.60;;;13.20;73.10;;;;;;5090870;28;20495;-44
2021/04/04 08:34:48;;;;;;;2.28;1.45;;;13.20;73.10;;;;;;5113661;28;20040;-43
2021/04/04 08:37:23;;;;;;;3.30;1.65;;;13.20;73.70;;;;;;5113866;28;20046;-48
2021/04/04 08:39:54;;;;;;;;;;;13.30;73.20;;;;;;5112371;28;20122;-43
2021/04/04 08:42:20;;;;;;;2.22;1.48;;;13.20;73.10;;;;;;5113462;28;19919;-44
2021/04/04 08:45:23;;;;;;;1.65;1.27;;;13.20;73.10;;;;;;5113971;28;20043;-44
2021/04/04 08:47:51;;;;;;;1.75;1.40;;;13.20;73.10;;;;;;5113708;28;20051;-43
2021/04/04 08:50:19;;;;;;;1.52;1.33;;;13.20;73.10;;;;;;5113308;28;20051;-45
2021/04/04 08:52:48;;;;;;;2.97;1.77;;;13.20;73.70;;;;;;5106285;28;20400;-43
2021/04/04 08:55:25;;;;;;;2.25;1.50;;;13.20;73.10;;;;;;5111165;28;20047;-44
2021/04/04 08:57:52;;;;;;;1.90;1.20;;;13.20;73.10;;;;;;5112787;28;20552;-43
2021/04/04 09:00:21;;;;;;;2.00;1.50;;;13.20;73.10;;;;;;5112911;28;20040;-47
2021/04/04 09:03:17;;;;;;;2.42;1.52;;;13.20;73.10;;;;;;5112701;28;20061;-45
2021/04/04 09:05:43;;;;;;;;;;;13.20;73.10;;;;;;5110320;28;20058;-44
2021/04/04 09:08:11;;;;;;;;;;;13.20;73.10;;;;;;5112943;28;19927;-48
2021/04/04 09:10:38;;;;;;;2.00;1.20;;;13.20;73.10;;;;;;5112712;28;19958;-44
2021/04/04 09:13:13;;;;;;;2.00;1.38;;;13.20;73.10;;;;;;5112474;28;20519;-41
2021/04/04 09:15:54;;;;;;;1.60;1.30;;;13.20;73.10;;;;;;5112817;28;20089;-43
2021/04/04 09:18:21;;;;;;;2.30;1.35;;;13.20;73.10;;;;;;5111684;28;20052;-42
2021/04/04 09:20:48;;;;;;;1.85;1.20;;;13.20;73.10;;;;;;5112110;28;20040;-41
2021/04/04 09:23:17;;;;;;;3.03;1.50;;;13.20;73.10;;;;;;5112451;28;20036;-43
2021/04/04 09:25:55;;;;;;;1.85;1.42;;;13.20;73.10;;;;;;5112243;28;20109;-46
2021/04/04 09:28:25;;;;;;;2.42;1.40;;;13.20;73.10;;;;;;5112506;28;20048;-45
2021/04/04 09:30:51;;;;;;;3.03;1.60;;;13.20;73.10;;;;;;5109671;28;20071;-42
2021/04/04 09:33:19;;;;;;;2.83;1.60;;;13.20;73.10;;;;;;5112185;28;20830;-46
2021/04/04 09:35:55;;;;;;;2.00;1.15;;;13.10;73.00;;;;;;5112098;28;20487;-42
2021/04/04 09:38:28;;;;;;;4.05;1.13;;;13.10;73.00;;;;;;5111838;28;20456;-43
2021/04/04 09:40:56;;;;;;;1.88;1.13;;;13.20;73.10;;;;;;5110076;28;20044;-42
2021/04/04 09:43:23;;;;;;;1.85;1.13;;;13.20;73.10;;;;;;5112286;28;20048;-42
2021/04/04 09:45:49;;;;;;;3.65;1.90;;;13.20;73.10;;;;;;5109401;28;20044;-45
2021/04/04 09:48:25;;;;;;;2.15;1.15;;;13.20;73.10;;;;;;5112142;28;20410;-42
2021/04/04 09:51:15;;;;;;;2.10;1.42;;;13.30;73.10;;;;;;5109387;28;20044;-41
2021/04/04 09:53:42;;;;;;;2.92;1.23;;;13.20;73.00;;;;;;5110843;28;20051;-42
2021/04/04 09:56:18;;;;;;;2.95;1.40;;;13.20;73.10;;;;;;5111587;28;20043;-40
2021/04/04 09:58:47;;;;;;;2.63;1.52;;;13.20;73.00;;;;;;5111968;28;20051;-39
2021/04/04 10:01:18;;;;;;;1.83;1.45;;;13.20;73.00;;;;;;5112028;28;20137;-42
2021/04/04 10:04:03;;;;;;;2.28;1.73;;;13.20;73.00;;;;;;5111950;28;20135;-49
2021/04/04 10:06:30;;;;;;;1.77;1.27;;;13.20;73.00;;;;;;5110125;28;20040;-41
2021/04/04 10:09:07;;;;;;;1.70;1.23;;;13.20;73.00;;;;;;5111700;28;20400;-47
2021/04/04 10:11:34;;;;;;;1.17;0.90;;;13.20;73.00;;;;;;5109965;28;20118;-47
2021/04/04 10:14:13;;;;;;;1.58;1.20;;;13.30;73.10;;;;;;5111703;28;20035;-40
2021/04/04 10:16:39;;;;;;;2.22;1.20;;;13.20;73.00;;;;;;5104970;28;20582;-42
2021/04/04 10:19:09;;;;;;;1.92;1.42;;;13.20;73.00;;;;;;5091021;28;20047;-43
2021/04/04 10:21:38;;;;;;;2.50;1.30;;;13.30;73.10;;;;;;5106801;28;20047;-44
2021/04/04 10:24:26;;;;;;;2.72;1.30;;;13.30;73.10;;;;;;5104325;28;20051;-42
2021/04/04 10:27:18;;;;;;;1.30;1.10;;;13.30;73.10;;;;;;5104405;28;20044;-41
2021/04/04 10:29:45;;;;;;;3.05;1.30;;;13.30;73.10;;;;;;5106881;28;20625;-43
2021/04/04 10:32:11;;;;;;;2.28;1.23;;;13.20;73.70;;;;;;5107021;28;20050;-42
2021/04/04 10:34:45;;;;;;;1.20;1.10;;;13.20;73.00;;;;;;5106866;28;20036;-43
2021/04/04 10:37:21;;;;;;;1.55;1.25;;;13.20;73.00;;;;;;5104314;28;20150;-41
2021/04/04 10:39:56;;;;;;;3.20;1.38;;;13.30;73.10;;;;;;5107502;28;20054;-41
2021/04/04 10:42:22;;;;;;;2.45;1.58;;;13.30;73.10;;;;;;5107685;28;20138;-40
2021/04/04 10:44:48;;;;;;;2.47;1.27;;;13.30;73.00;;;;;;5107176;28;20119;-40
2021/04/04 10:47:21;;;;;;;1.20;0.93;;;13.30;73.10;;;;;;5106438;28;20052;-40
2021/04/04 10:49:50;;;;;;;3.50;1.27;;;13.20;73.00;;;;;;5099706;28;20055;-42
2021/04/04 10:52:19;;;;;;;1.67;1.10;;;13.20;73.00;;;;;;5103185;28;20047;-41
2021/04/04 10:54:46;;;;;;;1.52;1.20;;;13.30;73.10;;;;;;5109760;27;20048;-41
2021/04/04 10:57:12;;;;;;;1.52;1.10;;;13.20;73.00;;;;;;5110292;28;20054;-40
2021/04/04 10:59:38;;;;;;;2.17;1.05;;;13.30;73.00;;;;;;5110298;28;20150;-41
2021/04/04 11:02:04;;;;;;;2.08;1.30;;;13.30;73.00;;;;;;5109409;28;20056;-40
2021/04/04 11:04:32;;;;;;;1.33;1.00;;;13.30;73.00;;;;;;5109890;28;20126;-41
2021/04/04 11:06:59;;;;;;;3.00;1.23;;;13.30;73.00;;;;;;5109954;28;20043;-40
2021/04/04 11:09:26;;;;;;;2.92;1.25;;;13.30;73.00;;;;;;5109682;28;20487;-41
2021/04/04 11:11:58;;;;;;;2.05;1.30;;;13.30;73.00;;;;;;5109745;28;20039;-40
2021/04/04 11:14:25;;;;;;;1.65;1.15;;;13.30;73.00;;;;;;5109857;28;20055;-41
2021/04/04 11:16:58;;;;;;;2.13;1.15;;;13.30;73.00;;;;;;5107195;28;20117;-41
2021/04/04 11:19:26;;;;;;;2.60;1.23;;;13.30;73.00;;;;;;5111906;28;20086;-39
2021/04/04 11:21:54;;;;;;;3.25;1.30;;;13.30;73.00;;;;;;5114104;28;20048;-42
2021/04/04 11:24:22;;;;;;;2.95;1.38;;;13.30;73.00;;;;;;5113940;28;20497;-42
2021/04/04 11:26:50;;;;;;;1.13;1.02;;;13.30;73.00;;;;;;5114282;28;20047;-40
2021/04/04 11:29:18;;;;;;;1.23;1.10;;;13.30;73.00;;;;;;5114308;28;20040;-40
2021/04/04 11:31:49;;;;;;;1.45;1.00;;;13.30;73.00;;;;;;5114279;28;20125;-41
2021/04/04 11:34:38;;;;;;;1.85;0.90;;;13.30;73.00;;;;;;5114190;27;20047;-44
2021/04/04 11:37:12;;;;;;;1.13;1.02;;;13.30;73.00;;;;;;5115825;28;20055;-41
2021/04/04 11:39:40;;;;;;;2.25;1.25;;;13.30;72.90;;;;;;5115396;28;20043;-42
2021/04/04 11:42:17;;;;;;;1.88;1.13;;;13.30;72.90;;;;;;5112203;28;20054;-41
2021/04/04 11:44:51;;;;;;;2.72;1.00;;;13.30;73.00;;;;;;5104492;28;20047;-41
2021/04/04 11:47:17;;;;;;;2.78;1.13;;;13.30;72.90;;;;;;5112716;28;20047;-40
2021/04/04 11:49:51;;;;;;;1.70;1.00;;;13.30;73.00;;;;;;5114160;28;20112;-41
2021/04/04 11:52:16;;;;;;;1.70;1.30;;;13.30;73.00;;;;;;5113751;28;20124;-41
2021/04/04 11:54:45;;;;;;;2.25;1.42;;;13.30;73.00;;;;;;5113815;28;20075;-43
2021/04/04 11:57:17;;;;;;;1.27;0.90;;;13.30;72.90;;;;;;5113939;28;20050;-39
2021/04/04 11:59:43;;;;;;;1.30;0.93;;;13.30;72.90;;;;;;5111637;28;20044;-41
2021/04/04 12:02:15;;;;;;;1.63;1.35;;;13.30;72.90;;;;;;5113426;28;20096;-40
2021/04/04 12:07:11;;;;;;;1.27;0.88;;;13.30;72.90;;;;;;5113760;28;20506;-40
2021/04/04 12:09:40;;;;;;;1.20;0.73;;;13.30;72.90;;;;;;5113856;28;20448;-41
2021/04/04 12:12:07;;;;;;;3.08;1.13;;;13.30;72.90;;;;;;5113487;28;20118;-40
2021/04/04 12:14:45;;;;;;;1.55;1.13;;;13.30;72.90;;;;;;5113717;28;20224;-42
2021/04/04 12:17:11;;;;;;;1.33;1.13;;;13.30;72.90;;;;;;5112443;28;20123;-40
2021/04/04 12:19:37;;;;;;;1.17;1.05;;;13.30;72.90;;;;;;5113610;28;20158;-39
2021/04/04 12:22:03;;;;;;;2.42;1.20;;;13.30;72.90;;;;;;5112957;28;20502;-39
2021/04/04 12:24:51;;;;;;;1.85;1.25;;;13.30;73.00;;;;;;5113403;28;20047;-40
2021/04/04 12:27:19;;;;;;;1.67;1.10;;;13.30;72.90;;;;;;5108309;28;20048;-40
2021/04/04 12:29:53;;;;;;;2.58;1.30;;;13.30;72.90;;;;;;5103314;28;20051;-41
2021/04/04 12:32:22;;;;;;;2.47;1.20;;;13.30;73.60;;;;;;5106537;28;20507;-40
2021/04/04 12:34:56;;;;;;;0.80;0.80;;;13.30;72.90;;;;;;5113736;28;20032;-39
2021/04/04 12:37:25;;;;;;;1.13;0.85;;;13.30;72.90;;;;;;5110793;28;20063;-43
2021/04/04 12:39:52;;;;;;;2.38;1.13;;;13.30;72.90;;;;;;5113310;28;20484;-40
2021/04/04 12:42:26;;;;;;;1.52;1.10;;;13.30;72.90;;;;;;5113210;28;20032;-42
2021/04/04 12:44:52;;;;;;;3.65;1.25;;;13.30;72.90;;;;;;5113794;28;20044;-42
2021/04/04 12:47:23;;;;;;;1.40;1.08;;;13.30;72.90;;;;;;5113350;28;20047;-40
2021/04/04 12:50:10;;;;;;;1.92;1.10;;;13.30;72.90;;;;;;5113783;28;20040;-42
2021/04/04 12:52:50;;;;;;;2.08;1.20;;;13.30;72.90;;;;;;5113018;28;20050;-42
2021/04/04 12:55:18;;;;;;;1.50;1.25;;;13.30;72.90;;;;;;5113670;28;20054;-45
2021/04/04 12:57:46;;;;;;;1.20;1.08;;;13.30;72.90;;;;;;5113026;28;20032;-43
2021/04/04 13:00:21;;;;;;;1.73;1.20;;;13.30;72.90;;;;;;5113539;28;20046;-46
2021/04/04 13:03:01;;;;;;;14.07;4.65;;;13.30;72.90;;;;;;5111448;28;20036;-42
2021/04/04 13:05:34;;;;;;;8.93;3.50;;;13.30;71.30;;;;;;5090172;28;20071;-41
2021/04/04 13:08:08;;;;;;;15.60;4.05;;;12.90;70.20;;;;;;5088965;28;20094;-41
2021/04/04 13:10:33;;;;;;;9.30;4.03;;;12.50;69.90;;;;;;5107381;28;20108;-41
2021/04/04 13:13:11;;;;;;;8.50;3.65;;;12.20;69.50;;;;;;5107497;28;20130;-40
2021/04/04 13:15:37;;;;;;;11.60;4.10;;;12.00;69.00;;;;;;5108395;28;20138;-45
2021/04/04 13:18:03;;;;;;;13.32;4.72;;;11.60;68.80;;;;;;5108466;28;20123;-38